Miskolc, Hungary
Current Conditions -  °F | °C
As of 3:00 AM on Tuesday 21 Oct 2014 (Local Time) from LZKZ Reporting Station
Haze Haze  
Wind Chill: 54°   Ceiling: Unl
Heat Index: 54°   Visibility: 1.8mi
Dew Point: 52°   Wind: 2mph
Humidity: 94%   Direction: 360°N
Pressure: 29.88"   Gusts: NA
Location:  48.1°N, 20.79°E
Report Text: LZKZ 210100Z 36002KT 3000 BR FEW008 12/11 Q1012
Loading
Personal Weather Stations






























Interactive Weather Map
Tropical Storm Tracking
New forecast layout! Learn more

10-Day Weather Forecast

Advertisements
Track Severe Weather on mobile